Athens, Alabama
Current Conditions -  °F | °C
As of 2:53 PM on Monday 24 Nov 2014 (Local Time) from KDCU Reporting Station
Clear Clear  
Wind Chill: 60°   Ceiling: Unl
Heat Index: 60°   Visibility: 10mi
Dew Point: 38°   Wind: 9mph
Humidity: 44%   Direction: 280°W
Pressure: 29.87"   Gusts: NA
Location:  34.8°N, 86.97°W
Report Text: KDCU 242053Z AUTO 28008KT 10SM CLR 16/03 A2987 RMK AO2 SLP111 T01560033 53015
Loading
Personal Weather Stations






























Interactive Weather Map New forecast layout! Learn more

10-Day Weather Forecast

Advertisements
Track Severe Weather on mobile